sensor_id;sensor_type;location;lat;lon;timestamp;P1;durP1;ratioP1;P2;durP2;ratioP2
5345;SDS011;2695;49.444;11.054;2023-02-03T00:00:06;4.30;;;2.70;;
5345;SDS011;2695;49.444;11.054;2023-02-03T00:02:35;4.67;;;2.77;;
5345;SDS011;2695;49.444;11.054;2023-02-03T00:05:04;2.40;;;2.20;;
5345;SDS011;2695;49.444;11.054;2023-02-03T00:07:33;4.17;;;2.50;;
5345;SDS011;2695;49.444;11.054;2023-02-03T00:10:03;3.73;;;2.57;;
5345;SDS011;2695;49.444;11.054;2023-02-03T00:12:34;5.00;;;2.40;;
5345;SDS011;2695;49.444;11.054;2023-02-03T00:15:02;2.90;;;2.47;;
5345;SDS011;2695;49.444;11.054;2023-02-03T00:17:31;10.83;;;2.63;;
5345;SDS011;2695;49.444;11.054;2023-02-03T00:19:59;4.57;;;2.50;;
5345;SDS011;2695;49.444;11.054;2023-02-03T00:22:27;3.70;;;2.60;;
5345;SDS011;2695;49.444;11.054;2023-02-03T00:24:55;3.60;;;2.97;;
5345;SDS011;2695;49.444;11.054;2023-02-03T00:27:23;8.83;;;3.23;;
5345;SDS011;2695;49.444;11.054;2023-02-03T00:29:53;3.23;;;2.93;;
5345;SDS011;2695;49.444;11.054;2023-02-03T00:32:21;3.03;;;2.70;;
5345;SDS011;2695;49.444;11.054;2023-02-03T00:34:50;3.83;;;2.63;;
5345;SDS011;2695;49.444;11.054;2023-02-03T00:37:18;3.73;;;2.57;;
5345;SDS011;2695;49.444;11.054;2023-02-03T00:39:46;3.53;;;2.70;;
5345;SDS011;2695;49.444;11.054;2023-02-03T00:42:15;3.67;;;2.70;;
5345;SDS011;2695;49.444;11.054;2023-02-03T00:44:43;6.87;;;2.90;;
5345;SDS011;2695;49.444;11.054;2023-02-03T00:47:12;2.87;;;2.67;;
5345;SDS011;2695;49.444;11.054;2023-02-03T00:49:40;4.50;;;2.50;;
5345;SDS011;2695;49.444;11.054;2023-02-03T00:55:56;7.07;;;3.23;;
5345;SDS011;2695;49.444;11.054;2023-02-03T00:58:24;3.40;;;2.30;;
5345;SDS011;2695;49.444;11.054;2023-02-03T01:00:53;11.80;;;3.20;;
5345;SDS011;2695;49.444;11.054;2023-02-03T01:03:23;3.70;;;2.57;;
5345;SDS011;2695;49.444;11.054;2023-02-03T01:08:51;4.67;;;2.70;;
5345;SDS011;2695;49.444;11.054;2023-02-03T01:11:21;7.33;;;2.73;;
5345;SDS011;2695;49.444;11.054;2023-02-03T01:13:50;4.13;;;2.73;;
5345;SDS011;2695;49.444;11.054;2023-02-03T01:16:20;5.87;;;3.27;;
5345;SDS011;2695;49.444;11.054;2023-02-03T01:18:50;3.73;;;2.70;;
5345;SDS011;2695;49.444;11.054;2023-02-03T01:21:20;4.70;;;3.10;;
5345;SDS011;2695;49.444;11.054;2023-02-03T01:23:49;9.53;;;3.80;;
5345;SDS011;2695;49.444;11.054;2023-02-03T01:26:18;6.83;;;3.57;;
5345;SDS011;2695;49.444;11.054;2023-02-03T01:28:49;5.30;;;3.70;;
5345;SDS011;2695;49.444;11.054;2023-02-03T01:31:28;5.27;;;3.30;;
5345;SDS011;2695;49.444;11.054;2023-02-03T01:34:00;3.67;;;3.30;;
5345;SDS011;2695;49.444;11.054;2023-02-03T01:36:28;6.00;;;3.77;;
5345;SDS011;2695;49.444;11.054;2023-02-03T01:38:57;5.07;;;4.53;;
5345;SDS011;2695;49.444;11.054;2023-02-03T01:41:27;7.03;;;3.67;;
5345;SDS011;2695;49.444;11.054;2023-02-03T01:43:58;8.00;;;4.80;;
5345;SDS011;2695;49.444;11.054;2023-02-03T01:46:29;5.97;;;3.83;;
5345;SDS011;2695;49.444;11.054;2023-02-03T01:49:03;8.30;;;3.90;;
5345;SDS011;2695;49.444;11.054;2023-02-03T01:51:34;7.10;;;4.53;;
5345;SDS011;2695;49.444;11.054;2023-02-03T01:54:03;9.20;;;4.67;;
5345;SDS011;2695;49.444;11.054;2023-02-03T01:56:34;6.17;;;4.83;;
5345;SDS011;2695;49.444;11.054;2023-02-03T01:59:05;9.23;;;4.73;;
5345;SDS011;2695;49.444;11.054;2023-02-03T02:01:34;10.80;;;4.30;;
5345;SDS011;2695;49.444;11.054;2023-02-03T02:04:04;7.67;;;4.30;;
5345;SDS011;2695;49.444;11.054;2023-02-03T02:06:33;15.40;;;5.63;;
5345;SDS011;2695;49.444;11.054;2023-02-03T02:09:01;8.70;;;5.23;;
5345;SDS011;2695;49.444;11.054;2023-02-03T02:11:30;9.47;;;4.93;;
5345;SDS011;2695;49.444;11.054;2023-02-03T02:14:00;7.43;;;5.07;;
5345;SDS011;2695;49.444;11.054;2023-02-03T02:16:33;6.57;;;4.43;;
5345;SDS011;2695;49.444;11.054;2023-02-03T02:19:27;4.93;;;4.43;;
5345;SDS011;2695;49.444;11.054;2023-02-03T02:22:12;7.07;;;4.87;;
5345;SDS011;2695;49.444;11.054;2023-02-03T02:25:10;6.37;;;4.10;;
5345;SDS011;2695;49.444;11.054;2023-02-03T02:34:57;9.40;;;4.50;;
5345;SDS011;2695;49.444;11.054;2023-02-03T02:37:34;5.57;;;4.37;;
5345;SDS011;2695;49.444;11.054;2023-02-03T02:40:12;5.67;;;4.07;;
5345;SDS011;2695;49.444;11.054;2023-02-03T02:42:50;8.57;;;4.17;;
5345;SDS011;2695;49.444;11.054;2023-02-03T02:45:27;6.63;;;4.13;;
5345;SDS011;2695;49.444;11.054;2023-02-03T02:51:33;5.43;;;4.30;;
5345;SDS011;2695;49.444;11.054;2023-02-03T02:54:06;9.93;;;5.00;;
5345;SDS011;2695;49.444;11.054;2023-02-03T02:56:37;10.03;;;4.80;;
5345;SDS011;2695;49.444;11.054;2023-02-03T02:59:07;12.20;;;4.70;;
5345;SDS011;2695;49.444;11.054;2023-02-03T03:01:35;9.63;;;4.20;;
5345;SDS011;2695;49.444;11.054;2023-02-03T03:04:06;6.40;;;4.30;;
5345;SDS011;2695;49.444;11.054;2023-02-03T03:06:39;12.87;;;5.10;;
5345;SDS011;2695;49.444;11.054;2023-02-03T03:09:11;8.20;;;4.00;;
5345;SDS011;2695;49.444;11.054;2023-02-03T03:11:46;4.73;;;3.87;;
5345;SDS011;2695;49.444;11.054;2023-02-03T03:14:17;6.17;;;4.00;;
5345;SDS011;2695;49.444;11.054;2023-02-03T03:16:47;5.13;;;3.70;;
5345;SDS011;2695;49.444;11.054;2023-02-03T03:19:21;7.73;;;5.30;;
5345;SDS011;2695;49.444;11.054;2023-02-03T03:21:53;7.10;;;4.17;;
5345;SDS011;2695;49.444;11.054;2023-02-03T03:24:25;6.70;;;3.77;;
5345;SDS011;2695;49.444;11.054;2023-02-03T03:26:56;4.63;;;3.57;;
5345;SDS011;2695;49.444;11.054;2023-02-03T03:29:29;4.20;;;3.30;;
5345;SDS011;2695;49.444;11.054;2023-02-03T03:32:01;4.57;;;3.30;;
5345;SDS011;2695;49.444;11.054;2023-02-03T03:34:29;4.17;;;3.07;;
5345;SDS011;2695;49.444;11.054;2023-02-03T03:37:01;4.57;;;2.97;;
5345;SDS011;2695;49.444;11.054;2023-02-03T03:39:39;3.93;;;2.87;;
5345;SDS011;2695;49.444;11.054;2023-02-03T03:42:16;3.70;;;3.20;;
5345;SDS011;2695;49.444;11.054;2023-02-03T03:44:50;10.87;;;2.87;;
5345;SDS011;2695;49.444;11.054;2023-02-03T03:47:23;3.10;;;2.67;;
5345;SDS011;2695;49.444;11.054;2023-02-03T03:49:55;5.10;;;2.90;;
5345;SDS011;2695;49.444;11.054;2023-02-03T03:52:26;5.13;;;3.33;;
5345;SDS011;2695;49.444;11.054;2023-02-03T03:54:57;4.53;;;3.13;;
5345;SDS011;2695;49.444;11.054;2023-02-03T03:57:27;4.50;;;3.20;;
5345;SDS011;2695;49.444;11.054;2023-02-03T03:59:58;8.90;;;3.37;;
5345;SDS011;2695;49.444;11.054;2023-02-03T04:02:28;6.30;;;3.70;;
5345;SDS011;2695;49.444;11.054;2023-02-03T04:04:59;6.70;;;3.50;;
5345;SDS011;2695;49.444;11.054;2023-02-03T04:07:37;4.07;;;2.97;;
5345;SDS011;2695;49.444;11.054;2023-02-03T04:10:15;6.07;;;2.97;;
5345;SDS011;2695;49.444;11.054;2023-02-03T04:12:48;3.73;;;3.10;;
5345;SDS011;2695;49.444;11.054;2023-02-03T04:15:16;3.23;;;2.37;;
5345;SDS011;2695;49.444;11.054;2023-02-03T04:17:44;3.23;;;2.93;;
5345;SDS011;2695;49.444;11.054;2023-02-03T04:20:12;3.60;;;2.73;;
5345;SDS011;2695;49.444;11.054;2023-02-03T04:22:42;4.00;;;2.80;;
5345;SDS011;2695;49.444;11.054;2023-02-03T04:25:10;2.67;;;2.40;;
5345;SDS011;2695;49.444;11.054;2023-02-03T04:27:38;3.10;;;2.80;;
5345;SDS011;2695;49.444;11.054;2023-02-03T04:30:06;4.67;;;2.77;;
5345;SDS011;2695;49.444;11.054;2023-02-03T04:32:35;3.83;;;3.10;;
5345;SDS011;2695;49.444;11.054;2023-02-03T04:35:04;3.77;;;2.63;;
5345;SDS011;2695;49.444;11.054;2023-02-03T04:37:33;5.47;;;2.53;;
5345;SDS011;2695;49.444;11.054;2023-02-03T04:40:02;7.87;;;3.30;;
5345;SDS011;2695;49.444;11.054;2023-02-03T04:42:31;6.50;;;2.67;;
5345;SDS011;2695;49.444;11.054;2023-02-03T04:44:59;8.90;;;3.20;;
5345;SDS011;2695;49.444;11.054;2023-02-03T04:47:27;4.53;;;2.80;;
5345;SDS011;2695;49.444;11.054;2023-02-03T04:49:55;2.33;;;2.10;;
5345;SDS011;2695;49.444;11.054;2023-02-03T04:52:23;5.23;;;2.50;;
5345;SDS011;2695;49.444;11.054;2023-02-03T04:54:52;4.10;;;2.20;;
5345;SDS011;2695;49.444;11.054;2023-02-03T04:57:21;4.57;;;2.70;;
5345;SDS011;2695;49.444;11.054;2023-02-03T04:59:49;7.10;;;2.60;;
5345;SDS011;2695;49.444;11.054;2023-02-03T05:02:17;3.83;;;2.57;;
5345;SDS011;2695;49.444;11.054;2023-02-03T05:04:45;2.83;;;2.30;;
5345;SDS011;2695;49.444;11.054;2023-02-03T05:07:12;4.20;;;2.90;;
5345;SDS011;2695;49.444;11.054;2023-02-03T05:09:40;5.47;;;2.30;;
5345;SDS011;2695;49.444;11.054;2023-02-03T05:12:08;3.47;;;2.37;;
5345;SDS011;2695;49.444;11.054;2023-02-03T05:14:38;3.40;;;2.60;;
5345;SDS011;2695;49.444;11.054;2023-02-03T05:17:05;4.33;;;2.30;;
5345;SDS011;2695;49.444;11.054;2023-02-03T05:19:33;3.03;;;2.47;;
5345;SDS011;2695;49.444;11.054;2023-02-03T05:22:01;2.80;;;2.10;;
5345;SDS011;2695;49.444;11.054;2023-02-03T05:24:29;2.87;;;2.67;;
5345;SDS011;2695;49.444;11.054;2023-02-03T05:26:57;2.63;;;1.87;;
5345;SDS011;2695;49.444;11.054;2023-02-03T05:29:25;2.73;;;2.20;;
5345;SDS011;2695;49.444;11.054;2023-02-03T05:31:55;5.13;;;1.87;;
5345;SDS011;2695;49.444;11.054;2023-02-03T05:34:23;4.37;;;2.33;;
5345;SDS011;2695;49.444;11.054;2023-02-03T05:36:50;2.13;;;1.97;;
5345;SDS011;2695;49.444;11.054;2023-02-03T05:39:18;4.40;;;2.50;;
5345;SDS011;2695;49.444;11.054;2023-02-03T05:41:46;4.57;;;2.03;;
5345;SDS011;2695;49.444;11.054;2023-02-03T05:44:23;2.37;;;2.17;;
5345;SDS011;2695;49.444;11.054;2023-02-03T05:46:54;2.77;;;2.10;;
5345;SDS011;2695;49.444;11.054;2023-02-03T05:49:24;2.73;;;2.07;;
5345;SDS011;2695;49.444;11.054;2023-02-03T05:51:53;1.70;;;1.60;;
5345;SDS011;2695;49.444;11.054;2023-02-03T05:54:22;2.73;;;2.20;;
5345;SDS011;2695;49.444;11.054;2023-02-03T05:56:50;2.67;;;1.80;;
5345;SDS011;2695;49.444;11.054;2023-02-03T05:59:18;3.17;;;1.70;;
5345;SDS011;2695;49.444;11.054;2023-02-03T06:01:46;1.87;;;1.27;;
5345;SDS011;2695;49.444;11.054;2023-02-03T06:04:15;3.03;;;1.70;;
5345;SDS011;2695;49.444;11.054;2023-02-03T06:06:44;2.60;;;2.37;;
5345;SDS011;2695;49.444;11.054;2023-02-03T06:09:13;1.40;;;1.30;;
5345;SDS011;2695;49.444;11.054;2023-02-03T06:11:40;5.23;;;1.80;;
5345;SDS011;2695;49.444;11.054;2023-02-03T06:14:08;4.10;;;1.50;;
5345;SDS011;2695;49.444;11.054;2023-02-03T06:16:36;2.90;;;1.60;;
5345;SDS011;2695;49.444;11.054;2023-02-03T06:19:04;2.53;;;1.70;;
5345;SDS011;2695;49.444;11.054;2023-02-03T06:21:34;3.50;;;1.67;;
5345;SDS011;2695;49.444;11.054;2023-02-03T06:24:02;1.53;;;1.30;;
5345;SDS011;2695;49.444;11.054;2023-02-03T06:26:30;2.70;;;1.50;;
5345;SDS011;2695;49.444;11.054;2023-02-03T06:28:58;1.20;;;1.10;;
5345;SDS011;2695;49.444;11.054;2023-02-03T06:31:26;2.30;;;1.30;;
5345;SDS011;2695;49.444;11.054;2023-02-03T06:33:54;1.17;;;1.07;;
5345;SDS011;2695;49.444;11.054;2023-02-03T06:36:22;1.50;;;1.40;;
5345;SDS011;2695;49.444;11.054;2023-02-03T06:38:51;1.63;;;1.53;;
5345;SDS011;2695;49.444;11.054;2023-02-03T06:41:19;2.43;;;2.13;;
5345;SDS011;2695;49.444;11.054;2023-02-03T06:43:52;3.03;;;1.70;;
5345;SDS011;2695;49.444;11.054;2023-02-03T06:46:20;1.53;;;1.43;;
5345;SDS011;2695;49.444;11.054;2023-02-03T06:48:48;1.30;;;1.20;;
5345;SDS011;2695;49.444;11.054;2023-02-03T06:51:16;1.27;;;1.17;;
5345;SDS011;2695;49.444;11.054;2023-02-03T06:53:44;2.53;;;1.33;;
5345;SDS011;2695;49.444;11.054;2023-02-03T06:56:13;3.77;;;1.60;;
5345;SDS011;2695;49.444;11.054;2023-02-03T06:58:41;1.40;;;1.30;;
5345;SDS011;2695;49.444;11.054;2023-02-03T07:01:09;1.83;;;1.27;;
5345;SDS011;2695;49.444;11.054;2023-02-03T07:03:37;1.53;;;1.00;;
5345;SDS011;2695;49.444;11.054;2023-02-03T07:06:06;2.00;;;1.30;;
5345;SDS011;2695;49.444;11.054;2023-02-03T07:08:34;1.63;;;1.30;;
5345;SDS011;2695;49.444;11.054;2023-02-03T07:11:02;1.67;;;1.13;;
5345;SDS011;2695;49.444;11.054;2023-02-03T07:13:31;1.30;;;1.20;;
5345;SDS011;2695;49.444;11.054;2023-02-03T07:15:59;0.97;;;0.90;;
5345;SDS011;2695;49.444;11.054;2023-02-03T07:18:27;1.20;;;1.03;;
5345;SDS011;2695;49.444;11.054;2023-02-03T07:21:13;1.87;;;1.40;;
5345;SDS011;2695;49.444;11.054;2023-02-03T07:23:41;5.23;;;1.40;;
5345;SDS011;2695;49.444;11.054;2023-02-03T07:26:10;1.63;;;1.37;;
5345;SDS011;2695;49.444;11.054;2023-02-03T07:28:39;1.37;;;1.27;;
5345;SDS011;2695;49.444;11.054;2023-02-03T07:31:07;2.70;;;1.53;;
5345;SDS011;2695;49.444;11.054;2023-02-03T07:33:36;1.40;;;1.30;;
5345;SDS011;2695;49.444;11.054;2023-02-03T07:36:05;1.87;;;1.40;;
5345;SDS011;2695;49.444;11.054;2023-02-03T07:38:34;2.27;;;1.77;;
5345;SDS011;2695;49.444;11.054;2023-02-03T07:41:04;2.90;;;1.70;;
5345;SDS011;2695;49.444;11.054;2023-02-03T07:43:32;1.77;;;1.40;;
5345;SDS011;2695;49.444;11.054;2023-02-03T07:46:02;1.83;;;1.60;;
5345;SDS011;2695;49.444;11.054;2023-02-03T07:48:30;2.10;;;1.77;;
5345;SDS011;2695;49.444;11.054;2023-02-03T07:50:58;3.47;;;1.47;;
5345;SDS011;2695;49.444;11.054;2023-02-03T07:53:26;3.60;;;1.83;;
5345;SDS011;2695;49.444;11.054;2023-02-03T07:55:57;4.00;;;1.60;;
5345;SDS011;2695;49.444;11.054;2023-02-03T07:58:26;2.37;;;1.60;;
5345;SDS011;2695;49.444;11.054;2023-02-03T08:00:54;2.57;;;1.20;;
5345;SDS011;2695;49.444;11.054;2023-02-03T08:03:23;2.20;;;1.63;;
5345;SDS011;2695;49.444;11.054;2023-02-03T08:05:51;1.50;;;1.30;;
5345;SDS011;2695;49.444;11.054;2023-02-03T08:08:20;1.60;;;1.10;;
5345;SDS011;2695;49.444;11.054;2023-02-03T08:10:48;1.60;;;1.50;;
5345;SDS011;2695;49.444;11.054;2023-02-03T08:13:15;2.20;;;1.10;;
5345;SDS011;2695;49.444;11.054;2023-02-03T08:15:43;1.43;;;1.33;;
5345;SDS011;2695;49.444;11.054;2023-02-03T08:18:11;2.73;;;1.20;;
5345;SDS011;2695;49.444;11.054;2023-02-03T08:20:41;1.60;;;1.50;;
5345;SDS011;2695;49.444;11.054;2023-02-03T08:23:08;3.30;;;1.60;;
5345;SDS011;2695;49.444;11.054;2023-02-03T08:25:37;4.00;;;1.47;;
5345;SDS011;2695;49.444;11.054;2023-02-03T08:28:05;2.30;;;1.30;;
5345;SDS011;2695;49.444;11.054;2023-02-03T08:30:33;1.93;;;1.77;;
5345;SDS011;2695;49.444;11.054;2023-02-03T08:33:01;4.77;;;2.00;;
5345;SDS011;2695;49.444;11.054;2023-02-03T08:35:29;4.60;;;1.43;;
5345;SDS011;2695;49.444;11.054;2023-02-03T08:37:59;22.27;;;10.97;;
5345;SDS011;2695;49.444;11.054;2023-02-03T08:40:27;3.33;;;1.53;;
5345;SDS011;2695;49.444;11.054;2023-02-03T08:42:56;5.10;;;2.37;;
5345;SDS011;2695;49.444;11.054;2023-02-03T08:45:24;1.53;;;1.37;;
5345;SDS011;2695;49.444;11.054;2023-02-03T08:47:52;2.20;;;1.47;;
5345;SDS011;2695;49.444;11.054;2023-02-03T08:50:20;2.17;;;1.80;;
5345;SDS011;2695;49.444;11.054;2023-02-03T08:52:48;1.80;;;1.70;;
5345;SDS011;2695;49.444;11.054;2023-02-03T08:55:17;2.70;;;1.70;;
5345;SDS011;2695;49.444;11.054;2023-02-03T08:57:46;4.90;;;1.80;;
5345;SDS011;2695;49.444;11.054;2023-02-03T09:00:14;2.17;;;1.60;;
5345;SDS011;2695;49.444;11.054;2023-02-03T09:02:42;4.73;;;1.70;;
5345;SDS011;2695;49.444;11.054;2023-02-03T09:05:10;1.73;;;1.50;;
5345;SDS011;2695;49.444;11.054;2023-02-03T09:07:39;2.97;;;2.10;;
5345;SDS011;2695;49.444;11.054;2023-02-03T09:10:07;2.50;;;1.77;;
5345;SDS011;2695;49.444;11.054;2023-02-03T09:12:37;7.30;;;1.63;;
5345;SDS011;2695;49.444;11.054;2023-02-03T09:15:05;1.73;;;1.10;;
5345;SDS011;2695;49.444;11.054;2023-02-03T09:17:33;7.20;;;2.23;;
5345;SDS011;2695;49.444;11.054;2023-02-03T09:20:01;1.70;;;1.43;;
5345;SDS011;2695;49.444;11.054;2023-02-03T09:22:30;5.43;;;2.53;;
5345;SDS011;2695;49.444;11.054;2023-02-03T09:24:58;2.47;;;1.30;;
5345;SDS011;2695;49.444;11.054;2023-02-03T09:27:26;1.60;;;1.40;;
5345;SDS011;2695;49.444;11.054;2023-02-03T09:29:56;4.00;;;1.97;;
5345;SDS011;2695;49.444;11.054;2023-02-03T09:32:24;3.00;;;1.60;;
5345;SDS011;2695;49.444;11.054;2023-02-03T09:34:52;4.23;;;1.73;;
5345;SDS011;2695;49.444;11.054;2023-02-03T09:37:20;1.90;;;1.40;;
5345;SDS011;2695;49.444;11.054;2023-02-03T09:39:48;1.50;;;1.40;;
5345;SDS011;2695;49.444;11.054;2023-02-03T09:42:18;2.13;;;1.90;;
5345;SDS011;2695;49.444;11.054;2023-02-03T09:45:03;1.47;;;1.37;;
5345;SDS011;2695;49.444;11.054;2023-02-03T09:47:39;2.73;;;1.77;;
5345;SDS011;2695;49.444;11.054;2023-02-03T09:50:11;2.80;;;1.83;;
5345;SDS011;2695;49.444;11.054;2023-02-03T09:52:42;2.40;;;1.67;;
5345;SDS011;2695;49.444;11.054;2023-02-03T09:55:13;2.60;;;1.63;;
5345;SDS011;2695;49.444;11.054;2023-02-03T09:57:51;1.40;;;1.30;;
5345;SDS011;2695;49.444;11.054;2023-02-03T10:00:26;3.80;;;1.80;;
5345;SDS011;2695;49.444;11.054;2023-02-03T10:02:58;1.60;;;1.40;;
5345;SDS011;2695;49.444;11.054;2023-02-03T10:05:44;1.47;;;1.30;;
5345;SDS011;2695;49.444;11.054;2023-02-03T10:08:27;3.30;;;1.80;;
5345;SDS011;2695;49.444;11.054;2023-02-03T10:11:19;2.37;;;1.47;;
5345;SDS011;2695;49.444;11.054;2023-02-03T10:13:57;3.40;;;1.70;;
5345;SDS011;2695;49.444;11.054;2023-02-03T10:16:47;2.50;;;1.40;;
5345;SDS011;2695;49.444;11.054;2023-02-03T10:19:34;2.00;;;1.10;;
5345;SDS011;2695;49.444;11.054;2023-02-03T10:22:09;3.83;;;1.87;;
5345;SDS011;2695;49.444;11.054;2023-02-03T10:24:42;1.77;;;1.17;;
5345;SDS011;2695;49.444;11.054;2023-02-03T10:27:15;1.53;;;1.10;;
5345;SDS011;2695;49.444;11.054;2023-02-03T10:29:46;3.13;;;1.63;;
5345;SDS011;2695;49.444;11.054;2023-02-03T10:32:23;0.80;;;0.80;;
5345;SDS011;2695;49.444;11.054;2023-02-03T10:34:53;2.03;;;1.27;;
5345;SDS011;2695;49.444;11.054;2023-02-03T10:37:24;1.53;;;1.43;;
5345;SDS011;2695;49.444;11.054;2023-02-03T10:39:56;6.00;;;1.40;;
5345;SDS011;2695;49.444;11.054;2023-02-03T10:42:26;2.67;;;1.30;;
5345;SDS011;2695;49.444;11.054;2023-02-03T10:45:16;5.13;;;2.17;;
5345;SDS011;2695;49.444;11.054;2023-02-03T10:47:46;1.43;;;1.33;;
5345;SDS011;2695;49.444;11.054;2023-02-03T10:50:18;1.60;;;1.50;;
5345;SDS011;2695;49.444;11.054;2023-02-03T10:52:47;2.70;;;2.10;;
5345;SDS011;2695;49.444;11.054;2023-02-03T10:55:29;2.47;;;1.43;;
5345;SDS011;2695;49.444;11.054;2023-02-03T10:58:13;2.23;;;1.47;;
5345;SDS011;2695;49.444;11.054;2023-02-03T11:00:43;1.93;;;1.60;;
5345;SDS011;2695;49.444;11.054;2023-02-03T11:03:19;1.63;;;1.53;;
5345;SDS011;2695;49.444;11.054;2023-02-03T11:06:04;2.00;;;1.20;;
5345;SDS011;2695;49.444;11.054;2023-02-03T11:08:35;1.60;;;1.23;;
5345;SDS011;2695;49.444;11.054;2023-02-03T11:11:05;1.33;;;1.23;;
5345;SDS011;2695;49.444;11.054;2023-02-03T11:13:34;2.50;;;2.30;;
5345;SDS011;2695;49.444;11.054;2023-02-03T11:16:03;1.90;;;1.20;;
5345;SDS011;2695;49.444;11.054;2023-02-03T11:18:42;1.50;;;1.23;;
5345;SDS011;2695;49.444;11.054;2023-02-03T11:21:14;2.90;;;1.33;;
5345;SDS011;2695;49.444;11.054;2023-02-03T11:23:45;2.03;;;1.37;;
5345;SDS011;2695;49.444;11.054;2023-02-03T11:26:17;2.67;;;1.67;;
5345;SDS011;2695;49.444;11.054;2023-02-03T11:28:49;11.40;;;1.87;;
5345;SDS011;2695;49.444;11.054;2023-02-03T11:31:22;1.70;;;1.30;;
5345;SDS011;2695;49.444;11.054;2023-02-03T11:33:54;1.70;;;1.30;;
5345;SDS011;2695;49.444;11.054;2023-02-03T11:36:25;1.57;;;1.47;;
5345;SDS011;2695;49.444;11.054;2023-02-03T11:41:54;4.30;;;1.37;;
5345;SDS011;2695;49.444;11.054;2023-02-03T11:44:23;1.43;;;1.33;;
5345;SDS011;2695;49.444;11.054;2023-02-03T11:46:55;1.20;;;1.10;;
5345;SDS011;2695;49.444;11.054;2023-02-03T11:52:40;4.67;;;1.83;;
5345;SDS011;2695;49.444;11.054;2023-02-03T11:55:18;2.37;;;1.37;;
5345;SDS011;2695;49.444;11.054;2023-02-03T11:58:02;1.90;;;1.73;;
5345;SDS011;2695;49.444;11.054;2023-02-03T12:00:58;1.73;;;1.43;;
5345;SDS011;2695;49.444;11.054;2023-02-03T12:09:31;2.13;;;1.47;;
5345;SDS011;2695;49.444;11.054;2023-02-03T12:12:14;2.43;;;1.43;;
5345;SDS011;2695;49.444;11.054;2023-02-03T12:14:57;0.87;;;0.87;;
5345;SDS011;2695;49.444;11.054;2023-02-03T12:17:54;2.13;;;1.60;;
5345;SDS011;2695;49.444;11.054;2023-02-03T12:20:37;2.53;;;1.73;;
5345;SDS011;2695;49.444;11.054;2023-02-03T12:23:18;1.50;;;1.40;;
5345;SDS011;2695;49.444;11.054;2023-02-03T12:25:59;2.03;;;1.50;;
5345;SDS011;2695;49.444;11.054;2023-02-03T12:28:39;1.20;;;1.13;;
5345;SDS011;2695;49.444;11.054;2023-02-03T12:31:13;3.63;;;1.60;;
5345;SDS011;2695;49.444;11.054;2023-02-03T12:33:46;1.87;;;1.30;;
5345;SDS011;2695;49.444;11.054;2023-02-03T12:36:17;2.90;;;1.40;;
5345;SDS011;2695;49.444;11.054;2023-02-03T12:38:51;1.87;;;1.33;;
5345;SDS011;2695;49.444;11.054;2023-02-03T12:41:25;2.40;;;1.53;;
5345;SDS011;2695;49.444;11.054;2023-02-03T12:43:57;3.03;;;1.80;;
5345;SDS011;2695;49.444;11.054;2023-02-03T12:46:28;6.90;;;3.30;;
5345;SDS011;2695;49.444;11.054;2023-02-03T12:48:59;3.73;;;2.43;;
5345;SDS011;2695;49.444;11.054;2023-02-03T12:51:34;8.37;;;3.00;;
5345;SDS011;2695;49.444;11.054;2023-02-03T12:54:10;2.87;;;2.10;;
5345;SDS011;2695;49.444;11.054;2023-02-03T12:56:46;2.97;;;1.87;;
5345;SDS011;2695;49.444;11.054;2023-02-03T12:59:21;1.77;;;1.50;;
5345;SDS011;2695;49.444;11.054;2023-02-03T13:01:52;3.40;;;1.90;;
5345;SDS011;2695;49.444;11.054;2023-02-03T13:04:25;1.13;;;1.03;;
5345;SDS011;2695;49.444;11.054;2023-02-03T13:07:02;3.97;;;1.30;;
5345;SDS011;2695;49.444;11.054;2023-02-03T13:09:37;1.37;;;1.27;;
5345;SDS011;2695;49.444;11.054;2023-02-03T13:12:11;1.67;;;1.57;;
5345;SDS011;2695;49.444;11.054;2023-02-03T13:14:43;1.43;;;1.00;;
5345;SDS011;2695;49.444;11.054;2023-02-03T13:17:16;2.00;;;1.40;;
5345;SDS011;2695;49.444;11.054;2023-02-03T13:19:49;8.03;;;0.87;;
5345;SDS011;2695;49.444;11.054;2023-02-03T13:22:19;9.57;;;1.13;;
5345;SDS011;2695;49.444;11.054;2023-02-03T13:24:51;1.23;;;1.13;;
5345;SDS011;2695;49.444;11.054;2023-02-03T13:30:25;3.63;;;1.20;;
5345;SDS011;2695;49.444;11.054;2023-02-03T13:33:17;1.00;;;0.83;;
5345;SDS011;2695;49.444;11.054;2023-02-03T13:36:10;1.77;;;1.00;;
5345;SDS011;2695;49.444;11.054;2023-02-03T13:39:07;1.53;;;1.37;;
5345;SDS011;2695;49.444;11.054;2023-02-03T13:41:52;2.80;;;0.90;;
5345;SDS011;2695;49.444;11.054;2023-02-03T13:44:23;2.23;;;1.23;;
5345;SDS011;2695;49.444;11.054;2023-02-03T13:46:53;3.07;;;1.00;;
5345;SDS011;2695;49.444;11.054;2023-02-03T13:49:26;1.00;;;0.60;;
5345;SDS011;2695;49.444;11.054;2023-02-03T13:51:56;1.30;;;1.20;;
5345;SDS011;2695;49.444;11.054;2023-02-03T13:54:25;3.17;;;1.00;;
5345;SDS011;2695;49.444;11.054;2023-02-03T13:56:58;1.30;;;1.20;;
5345;SDS011;2695;49.444;11.054;2023-02-03T13:59:29;3.13;;;1.20;;
5345;SDS011;2695;49.444;11.054;2023-02-03T14:19:55;8.83;;;4.07;;
5345;SDS011;2695;49.444;11.054;2023-02-03T14:22:29;5.73;;;2.50;;
5345;SDS011;2695;49.444;11.054;2023-02-03T14:25:03;2.07;;;1.13;;
5345;SDS011;2695;49.444;11.054;2023-02-03T14:27:45;5.90;;;2.80;;
5345;SDS011;2695;49.444;11.054;2023-02-03T14:30:16;1.20;;;1.10;;
5345;SDS011;2695;49.444;11.054;2023-02-03T14:32:50;2.73;;;0.80;;
5345;SDS011;2695;49.444;11.054;2023-02-03T14:35:24;2.17;;;1.10;;
5345;SDS011;2695;49.444;11.054;2023-02-03T14:37:59;1.20;;;1.00;;
5345;SDS011;2695;49.444;11.054;2023-02-03T14:40:32;1.43;;;1.17;;
5345;SDS011;2695;49.444;11.054;2023-02-03T14:43:23;1.43;;;0.87;;
5345;SDS011;2695;49.444;11.054;2023-02-03T14:46:07;0.77;;;0.77;;
5345;SDS011;2695;49.444;11.054;2023-02-03T14:49:01;1.30;;;1.00;;
5345;SDS011;2695;49.444;11.054;2023-02-03T14:51:53;1.30;;;1.20;;
5345;SDS011;2695;49.444;11.054;2023-02-03T14:58:20;4.53;;;1.00;;
5345;SDS011;2695;49.444;11.054;2023-02-03T15:00:53;1.13;;;1.03;;
5345;SDS011;2695;49.444;11.054;2023-02-03T15:03:24;1.40;;;1.27;;
5345;SDS011;2695;49.444;11.054;2023-02-03T15:05:59;1.07;;;0.90;;
5345;SDS011;2695;49.444;11.054;2023-02-03T15:08:31;2.07;;;1.20;;
5345;SDS011;2695;49.444;11.054;2023-02-03T15:14:13;0.97;;;0.87;;
5345;SDS011;2695;49.444;11.054;2023-02-03T15:16:46;1.30;;;1.10;;
5345;SDS011;2695;49.444;11.054;2023-02-03T15:25:40;1.00;;;0.73;;
5345;SDS011;2695;49.444;11.054;2023-02-03T15:28:10;3.70;;;1.47;;
5345;SDS011;2695;49.444;11.054;2023-02-03T15:30:38;4.10;;;1.37;;
5345;SDS011;2695;49.444;11.054;2023-02-03T15:33:10;1.03;;;0.73;;
5345;SDS011;2695;49.444;11.054;2023-02-03T15:35:42;5.23;;;0.93;;
5345;SDS011;2695;49.444;11.054;2023-02-03T15:38:14;1.13;;;0.70;;
5345;SDS011;2695;49.444;11.054;2023-02-03T15:40:47;0.80;;;0.77;;
5345;SDS011;2695;49.444;11.054;2023-02-03T15:43:19;1.53;;;1.03;;
5345;SDS011;2695;49.444;11.054;2023-02-03T15:45:55;1.70;;;1.40;;
5345;SDS011;2695;49.444;11.054;2023-02-03T15:48:30;1.20;;;1.10;;
5345;SDS011;2695;49.444;11.054;2023-02-03T15:51:04;1.40;;;0.97;;
5345;SDS011;2695;49.444;11.054;2023-02-03T15:53:38;6.87;;;3.93;;
5345;SDS011;2695;49.444;11.054;2023-02-03T15:56:34;3.83;;;1.10;;
5345;SDS011;2695;49.444;11.054;2023-02-03T15:59:14;3.40;;;2.00;;
5345;SDS011;2695;49.444;11.054;2023-02-03T16:01:47;3.97;;;2.23;;
5345;SDS011;2695;49.444;11.054;2023-02-03T16:07:12;2.03;;;1.20;;
5345;SDS011;2695;49.444;11.054;2023-02-03T16:09:44;2.20;;;1.13;;
5345;SDS011;2695;49.444;11.054;2023-02-03T16:12:16;2.23;;;1.20;;
5345;SDS011;2695;49.444;11.054;2023-02-03T16:18:03;2.97;;;1.50;;
5345;SDS011;2695;49.444;11.054;2023-02-03T16:20:32;2.37;;;1.87;;
5345;SDS011;2695;49.444;11.054;2023-02-03T16:23:05;1.73;;;1.20;;
5345;SDS011;2695;49.444;11.054;2023-02-03T16:26:08;2.70;;;1.30;;
5345;SDS011;2695;49.444;11.054;2023-02-03T16:28:53;1.60;;;1.20;;
5345;SDS011;2695;49.444;11.054;2023-02-03T16:31:53;1.13;;;1.00;;
5345;SDS011;2695;49.444;11.054;2023-02-03T16:34:39;1.53;;;1.17;;
5345;SDS011;2695;49.444;11.054;2023-02-03T16:37:28;1.40;;;1.30;;
5345;SDS011;2695;49.444;11.054;2023-02-03T16:40:18;1.90;;;1.13;;